Tain, United Kingdom
Current Conditions -  °F | °C
As of 9:50 PM on Friday 28 Nov 2014 (Local Time) from EGPE Reporting Station
Scattered Clouds Scattered Clouds  
Wind Chill: 45°   Ceiling: Unl
Heat Index: 45°   Visibility: 6mi
Dew Point: 43°   Wind: 3mph
Humidity: 93%   Direction: 100°E
Pressure: 29.91"   Gusts: NA
Location:  57.81°N, 4.06°W
Report Text: EGPE 282150Z 10003KT 9999 FEW004 SCT024 07/06 Q1013
Loading
Personal Weather Stations






























Interactive Weather Map New forecast layout! Learn more

10-Day Weather Forecast

Advertisements
Track Severe Weather on mobile